KAID/AID METAR and TAF weather

Enter ICAO airport designator
Station Type Date Time Source
KAID METAR 2019/02/23 02:35 UTC NOAA

KAID 230235Z AUTO 00000KT 7SM OVC090 01/M02 A3031 RMK AO2 T00121017


Station Type Date Time Source
KAID Decoded METAR 2019/02/23 02:35 UTC NOAA

Anderson Municipal, IN, United States (KAID) 40-07N 085-37W
Feb 22, 2019 - 09:35 PM EST / 2019.02.23 0235 UTC
Wind: Calm:0
Visibility: 7 mile(s):0
Sky conditions: overcast
Temperature: 34.2 F (1.2 C)
Dew Point: 28.9 F (-1.7 C)
Relative Humidity: 80%
Pressure (altimeter): 30.31 in. Hg (1026 hPa)
ob: KAID 230235Z AUTO 00000KT 7SM OVC090 01/M02 A3031 RMK AO2 T00121017
cycle: 2

Station Type Date Time Source
KAID TAF UTC NOAA

Error!


Example: see airport list